Time;durP1;ratioP1;P1;durP2;ratioP2;P2;SDS_P1;SDS_P2;PMS_P1;PMS_P2;Temp;Humidity;BMP_temperature;BMP_pressure;BME280_temperature;BME280_humidity;BME280_pressure;Samples;Min_cycle;Max_cycle;Signal;HPM_P1;HPM_P2
2021/03/25 00:01:12;;;;;;;429.35;132.93;;;;;;;0.77;79.77;99288.16;5016434;28;20331;-71
2021/03/25 00:03:37;;;;;;;431.35;133.60;;;;;;;0.67;79.57;99286.19;5013996;28;20034;-71
2021/03/25 00:06:05;;;;;;;436.90;152.80;;;;;;;0.64;80.01;99296.16;5014783;28;20036;-71
2021/03/25 00:08:30;;;;;;;426.85;130.07;;;;;;;0.57;80.11;99294.28;5014096;28;20045;-71
2021/03/25 00:10:56;;;;;;;429.20;137.67;;;;;;;0.56;80.34;99287.50;5014032;28;20034;-71
2021/03/25 00:13:22;;;;;;;435.60;137.50;;;;;;;0.56;80.94;99290.03;5014048;28;20040;-71
2021/03/25 00:15:48;;;;;;;430.83;138.80;;;;;;;0.61;81.26;99277.56;5012530;28;20406;-70
2021/03/25 00:18:14;;;;;;;431.17;133.70;;;;;;;0.73;81.11;99278.78;5016583;28;20371;-73
2021/03/25 00:20:40;;;;;;;435.08;143.63;;;;;;;0.72;81.24;99273.72;5010759;28;20026;-72
2021/03/25 00:23:06;;;;;;;433.30;137.10;;;;;;;0.84;80.90;99279.13;5014472;28;20529;-71
2021/03/25 00:25:35;;;;;;;433.58;132.52;;;;;;;0.81;80.79;99284.06;5011435;28;20030;-72
2021/03/25 00:28:01;;;;;;;441.13;142.25;;;;;;;0.76;80.81;99278.91;5015159;28;20065;-71
2021/03/25 00:30:29;;;;;;;438.30;141.77;;;;;;;0.75;80.89;99283.91;5011711;28;20057;-72
2021/03/25 00:32:56;;;;;;;431.65;136.80;;;;;;;0.68;81.08;99282.00;5012797;28;20084;-72
2021/03/25 00:35:23;;;;;;;441.10;168.05;;;;;;;0.63;81.10;99283.53;5011880;28;20041;-72
2021/03/25 00:37:48;;;;;;;441.63;139.52;;;;;;;0.53;80.96;99276.47;5015176;28;20104;-72
2021/03/25 00:40:15;;;;;;;438.33;152.80;;;;;;;0.48;81.35;99276.31;5009016;28;20026;-72
2021/03/25 00:42:40;;;;;;;426.95;129.75;;;;;;;0.44;81.22;99277.91;5014361;28;20034;-72
2021/03/25 00:45:10;;;;;;;432.47;132.73;;;;;;;0.44;81.49;99279.56;5013923;28;20449;-72
2021/03/25 00:47:35;;;;;;;431.92;132.85;;;;;;;0.43;81.38;99275.31;5014430;28;20053;-72
2021/03/25 00:50:01;;;;;;;437.17;134.30;;;;;;;0.43;82.10;99283.75;5011586;28;20030;-72
2021/03/25 00:52:27;;;;;;;437.87;136.47;;;;;;;0.51;81.86;99261.28;5013098;28;20041;-73
2021/03/25 00:54:52;;;;;;;436.77;133.70;;;;;;;0.56;81.67;99263.94;5011440;28;20359;-73
2021/03/25 00:57:17;;;;;;;439.03;138.67;;;;;;;0.54;81.53;99265.59;5013540;28;20358;-71
2021/03/25 00:59:43;;;;;;;429.33;131.57;;;;;;;0.50;81.31;99264.63;5012755;28;20052;-71
2021/03/25 01:02:08;;;;;;;434.67;134.20;;;;;;;0.42;81.42;99266.91;5012545;28;20029;-71
2021/03/25 01:04:33;;;;;;;432.20;130.97;;;;;;;0.36;81.24;99264.19;5013334;28;20037;-72
2021/03/25 01:06:59;;;;;;;434.90;131.40;;;;;;;0.31;81.27;99257.28;5013472;28;20421;-71
2021/03/25 01:09:27;;;;;;;438.57;133.33;;;;;;;0.28;81.52;99259.72;5013894;28;20041;-72
2021/03/25 01:11:53;;;;;;;440.65;136.93;;;;;;;0.21;81.86;99263.69;5010377;28;20033;-71
2021/03/25 01:14:22;;;;;;;463.23;237.93;;;;;;;0.20;81.89;99269.56;5015411;28;20045;-71
2021/03/25 01:16:49;;;;;;;464.00;219.15;;;;;;;0.17;82.27;99258.53;5011063;28;20037;-72
2021/03/25 01:19:27;;;;;;;460.85;194.27;;;;;;;0.13;82.18;99262.59;5013667;28;20083;-72
2021/03/25 01:21:54;;;;;;;504.45;260.20;;;;;;;0.09;82.30;99257.41;5011791;28;20161;-71
2021/03/25 01:24:20;;;;;;;467.85;195.15;;;;;;;0.08;82.90;99258.25;5015943;28;20109;-73
2021/03/25 01:26:45;;;;;;;494.65;205.38;;;;;;;0.12;82.92;99257.53;5011656;28;20022;-71
2021/03/25 01:29:11;;;;;;;472.77;184.77;;;;;;;0.14;83.01;99255.91;5012972;28;20026;-72
2021/03/25 01:31:37;;;;;;;437.73;158.67;;;;;;;0.06;82.66;99248.09;5009558;28;20030;-72
2021/03/25 01:34:04;;;;;;;429.13;148.03;;;;;;;0.11;82.55;99253.28;5013085;28;20292;-72
2021/03/25 01:36:29;;;;;;;339.63;125.82;;;;;;;0.05;82.63;99248.03;5012087;28;20048;-72
2021/03/25 01:38:54;;;;;;;331.03;121.57;;;;;;;-0.01;82.55;99241.16;5012819;28;20034;-72
2021/03/25 01:41:20;;;;;;;433.97;137.37;;;;;;;-0.08;83.29;99241.75;5012386;28;20671;-72
2021/03/25 01:43:47;;;;;;;436.47;145.03;;;;;;;-0.10;83.30;99241.72;5011819;28;20419;-72
2021/03/25 01:46:29;;;;;;;440.48;142.25;;;;;;;-0.06;83.43;99242.66;5013934;28;20038;-72
2021/03/25 01:48:57;;;;;;;439.17;138.57;;;;;;;-0.09;83.63;99245.09;5009656;28;20030;-71
2021/03/25 01:51:44;;;;;;;435.27;132.50;;;;;;;-0.09;83.60;99238.41;5014603;28;20379;-72
2021/03/25 01:54:31;;;;;;;439.20;141.85;;;;;;;-0.09;83.35;99227.44;5008781;28;20056;-72
2021/03/25 01:57:17;;;;;;;434.08;129.10;;;;;;;-0.10;83.14;99233.28;5012614;28;20057;-72
2021/03/25 02:00:05;;;;;;;432.40;128.13;;;;;;;-0.13;82.91;99233.19;5007730;28;20082;-72
2021/03/25 02:02:41;;;;;;;432.83;129.30;;;;;;;-0.16;83.33;99236.47;5011785;28;20298;-72
2021/03/25 02:05:26;;;;;;;435.15;130.55;;;;;;;-0.21;83.61;99229.56;5012929;28;20038;-72
2021/03/25 02:08:37;;;;;;;434.65;128.98;;;;;;;-0.20;83.74;99236.31;5008892;28;20336;-71
2021/03/25 02:11:09;;;;;;;433.85;126.05;;;;;;;-0.20;83.92;99231.28;4973984;28;20038;-70
2021/03/25 02:13:59;;;;;;;436.02;131.52;;;;;;;-0.17;84.07;99229.69;4974274;28;20054;-71
2021/03/25 02:16:34;;;;;;;441.73;130.45;;;;;;;-0.16;83.63;99231.41;4976912;28;20065;-72
2021/03/25 02:19:22;;;;;;;439.88;127.97;;;;;;;-0.18;83.57;99233.06;4977691;28;20046;-70
2021/03/25 02:22:12;;;;;;;431.00;126.85;;;;;;;-0.18;83.89;99233.06;4956357;28;20383;-70
2021/03/25 02:24:57;;;;;;;439.10;133.32;;;;;;;-0.22;83.98;99231.25;4977228;28;20141;-72
2021/03/25 02:27:45;;;;;;;440.27;131.38;;;;;;;-0.22;83.95;99232.91;4978332;28;20046;-72
2021/03/25 02:30:46;;;;;;;434.08;133.80;;;;;;;-0.16;84.05;99228.91;4977249;28;20089;-72
2021/03/25 02:33:16;;;;;;;440.60;140.32;;;;;;;-0.10;83.73;99229.13;4918677;29;20472;-71
2021/03/25 02:35:47;;;;;;;442.95;135.85;;;;;;;-0.07;83.52;99220.78;4919045;29;20056;-72
2021/03/25 02:38:21;;;;;;;437.35;131.13;;;;;;;-0.10;83.38;99218.19;4936637;29;20398;-71
2021/03/25 02:40:51;;;;;;;324.90;99.03;;;;;;;-0.01;83.20;99219.34;4919999;29;20040;-71
2021/03/25 02:43:22;;;;;;;443.30;133.60;;;;;;;-0.01;83.10;99215.97;4919084;29;20398;-71
2021/03/25 02:45:58;;;;;;;440.77;133.70;;;;;;;-0.07;83.37;99219.13;4919036;29;20043;-71
2021/03/25 02:48:25;;;;;;;440.88;129.38;;;;;;;-0.16;83.21;99210.41;4950244;28;20094;-72
2021/03/25 02:50:57;;;;;;;435.88;129.63;;;;;;;-0.14;83.30;99216.38;4976847;28;20042;-72
2021/03/25 02:53:29;;;;;;;441.65;132.45;;;;;;;-0.17;83.64;99213.75;4976475;28;20038;-71
2021/03/25 02:56:00;;;;;;;439.08;130.43;;;;;;;-0.20;83.71;99211.97;4976275;28;20367;-71
2021/03/25 02:58:28;;;;;;;439.08;130.10;;;;;;;-0.23;83.49;99209.38;4978184;28;20077;-71
2021/03/25 03:01:00;;;;;;;433.40;132.40;;;;;;;-0.27;83.64;99212.59;4976255;28;20110;-71
2021/03/25 03:03:33;;;;;;;441.60;135.07;;;;;;;-0.22;83.95;99208.56;4976695;28;20035;-71
2021/03/25 03:06:00;;;;;;;438.00;130.00;;;;;;;-0.30;83.75;99202.41;4960083;28;20031;-72
2021/03/25 03:08:30;;;;;;;431.23;128.82;;;;;;;-0.29;83.70;99203.25;4976589;28;20089;-71
2021/03/25 03:11:11;;;;;;;438.88;134.30;;;;;;;-0.30;83.78;99209.13;5013075;28;20030;-71
2021/03/25 03:13:42;;;;;;;436.38;132.05;;;;;;;-0.34;83.76;99200.56;5011965;28;20129;-71
2021/03/25 03:16:14;;;;;;;441.30;147.73;;;;;;;-0.35;83.97;99203.06;5012706;28;20061;-71
2021/03/25 03:19:23;;;;;;;439.30;127.75;;;;;;;-0.23;83.86;99209.38;5009283;28;20064;-70
2021/03/25 03:21:56;;;;;;;442.25;128.82;;;;;;;-0.25;83.71;99205.91;4981435;28;20030;-70
2021/03/25 03:24:22;;;;;;;437.92;128.15;;;;;;;-0.29;83.56;99209.16;5012341;28;20066;-69
2021/03/25 03:27:02;;;;;;;442.27;146.73;;;;;;;-0.25;83.38;99210.09;5013202;28;20029;-69
2021/03/25 03:29:31;;;;;;;451.65;187.82;;;;;;;-0.32;83.77;99214.09;5013461;28;20042;-70
2021/03/25 03:32:46;;;;;;;452.27;183.07;;;;;;;-0.35;83.58;99203.06;5009022;28;20101;-69
2021/03/25 03:35:17;;;;;;;458.60;175.55;;;;;;;-0.44;83.75;99196.06;5011817;28;20057;-71
2021/03/25 03:37:46;;;;;;;474.30;195.88;;;;;;;-0.36;84.27;99201.34;5017307;28;20029;-70
2021/03/25 03:40:21;;;;;;;434.75;131.77;;;;;;;-0.29;83.91;99205.78;5009570;28;20022;-69
2021/03/25 03:42:46;;;;;;;322.13;103.40;;;;;;;-0.47;83.70;99190.94;5010574;28;20511;-69
2021/03/25 03:45:18;;;;;;;457.70;179.47;;;;;;;-0.38;83.91;99203.81;5013228;28;20113;-70
2021/03/25 03:47:46;;;;;;;440.33;162.27;;;;;;;-0.45;83.66;99204.41;5011673;28;20034;-70
2021/03/25 03:50:24;;;;;;;336.00;117.40;;;;;;;-0.48;83.96;99201.81;5015410;28;20034;-69
2021/03/25 03:52:50;;;;;;;439.45;154.70;;;;;;;-0.58;84.26;99189.69;5007478;28;20058;-69
2021/03/25 03:55:18;;;;;;;436.27;154.80;;;;;;;-0.56;84.19;99200.69;5040526;28;20044;-70
2021/03/25 03:58:02;;;;;;;442.65;168.32;;;;;;;-0.56;83.99;99203.22;5008584;28;20249;-70
2021/03/25 04:00:53;;;;;;;440.88;145.43;;;;;;;-0.62;84.39;99203.00;5013431;28;20379;-69
2021/03/25 04:03:36;;;;;;;438.20;136.85;;;;;;;-0.63;84.32;99197.09;5015837;28;20053;-70
2021/03/25 04:06:26;;;;;;;436.70;130.35;;;;;;;-0.63;84.59;99201.25;5011557;28;21614;-70
2021/03/25 04:09:02;;;;;;;431.27;128.80;;;;;;;-0.77;84.72;99188.22;5010234;28;20044;-70
2021/03/25 04:11:41;;;;;;;435.35;129.75;;;;;;;-0.68;84.69;99205.31;5011435;28;20033;-69
2021/03/25 04:14:23;;;;;;;431.73;122.82;;;;;;;-0.67;84.83;99209.53;5013836;28;20030;-71
2021/03/25 04:16:51;;;;;;;436.88;135.10;;;;;;;-0.68;85.06;99201.09;5010356;28;20058;-69
2021/03/25 04:19:27;;;;;;;432.25;137.32;;;;;;;-0.59;84.98;99203.09;5010924;28;20165;-70
2021/03/25 04:22:00;;;;;;;440.48;161.60;;;;;;;-0.53;85.01;99198.28;5011987;28;20029;-71
2021/03/25 04:24:29;;;;;;;439.08;135.65;;;;;;;-0.59;84.67;99208.13;5008979;28;20038;-72
2021/03/25 04:27:10;;;;;;;472.52;238.35;;;;;;;-0.62;84.74;99203.84;5012951;28;20030;-70
2021/03/25 04:30:05;;;;;;;425.15;134.43;;;;;;;-0.58;84.71;99209.84;5011953;28;20048;-69
2021/03/25 04:32:31;;;;;;;425.77;126.75;;;;;;;-0.63;84.76;99201.25;4949501;29;20451;-72
2021/03/25 04:34:59;;;;;;;421.63;126.73;;;;;;;-0.63;84.86;99188.69;4953753;29;20138;-71
2021/03/25 04:37:28;;;;;;;415.42;121.32;;;;;;;-0.53;84.51;99201.66;4953661;29;20050;-71
2021/03/25 04:39:55;;;;;;;417.10;117.18;;;;;;;-0.51;84.76;99199.19;4952364;29;20105;-71
2021/03/25 04:42:20;;;;;;;413.27;123.25;;;;;;;-0.47;84.47;99199.31;4953644;29;20039;-71
2021/03/25 04:45:07;;;;;;;411.23;121.40;;;;;;;-0.48;84.09;99194.25;4955958;29;20058;-71
2021/03/25 04:47:41;;;;;;;412.58;120.22;;;;;;;-0.44;84.27;99202.75;4951071;29;20035;-70
2021/03/25 04:50:16;;;;;;;297.13;89.25;;;;;;;-0.37;84.29;99204.66;4951967;29;20070;-70
2021/03/25 04:52:42;;;;;;;414.00;119.40;;;;;;;-0.31;83.93;99208.25;4954642;29;20384;-71
2021/03/25 04:55:21;;;;;;;414.73;124.60;;;;;;;-0.24;83.37;99210.16;4949575;29;20043;-70
2021/03/25 04:58:05;;;;;;;417.17;129.77;;;;;;;-0.32;83.30;99208.19;4945368;29;20077;-71
2021/03/25 05:00:36;;;;;;;422.50;130.88;;;;;;;-0.35;83.60;99211.47;4948106;29;20125;-71
2021/03/25 05:03:03;;;;;;;425.15;132.55;;;;;;;-0.43;83.46;99196.91;4949970;29;20054;-71
2021/03/25 05:05:30;;;;;;;421.63;134.95;;;;;;;-0.33;83.58;99206.47;4950710;29;20031;-70
2021/03/25 05:08:04;;;;;;;425.52;134.40;;;;;;;-0.36;83.59;99207.25;4950788;29;20042;-70
2021/03/25 05:10:42;;;;;;;410.23;114.80;;;;;;;-0.39;83.29;99199.59;5011211;28;20434;-71
2021/03/25 05:13:19;;;;;;;426.35;134.18;;;;;;;-0.41;83.35;99203.72;5012319;28;20063;-71
2021/03/25 05:15:45;;;;;;;420.65;122.35;;;;;;;-0.48;83.31;99206.84;5012010;28;20034;-70
2021/03/25 05:18:15;;;;;;;417.17;126.07;;;;;;;-0.47;83.61;99208.56;5008836;28;20036;-70
2021/03/25 05:20:47;;;;;;;426.70;135.85;;;;;;;-0.44;83.53;99198.59;5014053;28;20060;-71
2021/03/25 05:23:19;;;;;;;419.58;124.70;;;;;;;-0.32;83.57;99205.69;5038535;28;20025;-70
2021/03/25 05:26:11;;;;;;;419.35;124.43;;;;;;;-0.22;83.44;99205.19;5010436;28;20084;-70
2021/03/25 05:28:43;;;;;;;418.00;119.78;;;;;;;-0.12;83.17;99205.50;5009130;28;20145;-70
2021/03/25 05:31:12;;;;;;;419.67;120.78;;;;;;;-0.05;83.36;99204.94;5016281;28;20041;-70
2021/03/25 05:33:38;;;;;;;419.45;122.88;;;;;;;0.00;82.63;99205.91;5014415;28;20032;-70
2021/03/25 05:36:11;;;;;;;429.02;134.07;;;;;;;0.08;82.48;99211.22;5016212;28;20025;-70
2021/03/25 05:38:38;;;;;;;421.30;122.72;;;;;;;0.16;82.33;99221.53;5018157;28;20037;-70
2021/03/25 05:41:06;;;;;;;421.75;128.80;;;;;;;0.20;82.07;99218.28;5015766;28;20029;-70
2021/03/25 05:43:57;;;;;;;418.60;124.47;;;;;;;0.28;82.26;99210.16;5016161;28;20053;-70
2021/03/25 05:46:44;;;;;;;420.00;129.57;;;;;;;0.40;81.93;99224.78;5015177;28;20038;-70
2021/03/25 05:49:29;;;;;;;424.45;130.85;;;;;;;0.49;81.25;99212.47;5016312;28;20129;-71
2021/03/25 05:52:22;;;;;;;307.50;97.55;;;;;;;0.65;81.04;99219.69;5017753;28;20037;-70
2021/03/25 05:55:02;;;;;;;422.95;134.07;;;;;;;0.73;80.32;99220.75;5015678;28;20061;-70
2021/03/25 05:57:53;;;;;;;426.30;140.18;;;;;;;0.84;79.97;99223.59;5018963;28;20052;-71
2021/03/25 06:00:31;;;;;;;429.75;140.45;;;;;;;1.01;79.90;99222.41;5014237;28;20109;-71
2021/03/25 06:03:11;;;;;;;434.83;145.30;;;;;;;1.12;79.82;99223.56;5019086;28;20092;-70
2021/03/25 06:05:36;;;;;;;428.80;140.27;;;;;;;1.28;79.19;99222.28;5014976;28;20064;-71
2021/03/25 06:08:19;;;;;;;426.30;144.27;;;;;;;1.49;78.43;99224.53;5018415;28;20061;-71
2021/03/25 06:10:56;;;;;;;417.92;137.32;;;;;;;1.69;78.04;99228.47;5019494;28;20033;-71
2021/03/25 06:13:42;;;;;;;430.55;139.35;;;;;;;1.76;78.35;99223.59;5015679;28;20033;-71
2021/03/25 06:16:19;;;;;;;434.73;143.10;;;;;;;1.96;78.71;99224.06;5034373;28;20046;-69
2021/03/25 06:19:03;;;;;;;433.23;139.85;;;;;;;2.11;77.50;99224.47;5019351;28;20025;-70
2021/03/25 06:22:02;;;;;;;425.08;137.05;;;;;;;2.30;77.45;99228.25;5018893;28;20136;-71
2021/03/25 06:25:05;;;;;;;430.58;135.07;;;;;;;2.42;77.05;99230.25;5017006;28;20022;-70
2021/03/25 06:27:53;;;;;;;428.60;140.40;;;;;;;2.44;76.20;99224.38;5017726;28;20256;-70
2021/03/25 06:30:22;;;;;;;430.63;141.68;;;;;;;2.66;76.20;99221.50;5023217;28;20042;-70
2021/03/25 06:33:35;;;;;;;434.58;145.00;;;;;;;2.84;75.33;99231.19;5014905;28;20038;-71
2021/03/25 06:36:10;;;;;;;433.17;143.65;;;;;;;3.00;75.56;99225.59;5006288;28;20051;-72
2021/03/25 06:38:42;;;;;;;431.08;143.43;;;;;;;3.22;75.17;99229.44;5016614;28;20283;-71
2021/03/25 06:41:19;;;;;;;438.75;147.65;;;;;;;3.39;74.65;99227.22;5020234;28;20045;-70
2021/03/25 06:44:00;;;;;;;436.50;156.07;;;;;;;3.67;74.08;99224.34;5046080;28;20062;-70
2021/03/25 06:46:32;;;;;;;440.67;156.43;;;;;;;3.84;73.09;99228.03;5014372;28;20030;-70
2021/03/25 06:49:00;;;;;;;449.13;164.63;;;;;;;3.97;72.81;99219.81;5021397;28;20025;-71
2021/03/25 06:51:35;;;;;;;438.58;161.18;;;;;;;4.29;72.59;99224.53;5014695;28;20037;-72
2021/03/25 06:54:15;;;;;;;319.98;129.30;;;;;;;4.43;71.75;99223.06;5038498;28;20029;-75
2021/03/25 06:56:45;;;;;;;445.67;172.15;;;;;;;4.63;71.16;99241.97;5022651;28;20049;-74
2021/03/25 06:59:26;;;;;;;446.13;179.07;;;;;;;4.73;70.24;99238.75;5025762;28;20037;-70
2021/03/25 07:02:02;;;;;;;448.23;179.43;;;;;;;4.92;69.77;99232.22;5024111;28;20076;-72
2021/03/25 07:04:31;;;;;;;446.75;180.52;;;;;;;5.07;68.87;99229.88;5019135;28;20069;-72
2021/03/25 07:07:02;;;;;;;451.92;193.48;;;;;;;5.24;68.55;99225.00;5016803;28;20309;-71
2021/03/25 07:09:31;;;;;;;449.90;196.32;;;;;;;5.48;68.28;99228.66;5011992;28;20034;-70
2021/03/25 07:11:59;;;;;;;455.20;197.43;;;;;;;5.66;67.44;99230.53;5014056;28;20033;-71
2021/03/25 07:14:38;;;;;;;448.95;193.88;;;;;;;5.83;67.13;99225.63;5013391;28;20140;-70
2021/03/25 07:17:05;;;;;;;449.27;189.18;;;;;;;6.04;66.45;99225.84;5016808;28;20057;-70
2021/03/25 07:19:34;;;;;;;454.15;195.35;;;;;;;6.21;65.30;99226.81;5026613;28;20030;-70
2021/03/25 07:22:23;;;;;;;457.67;197.10;;;;;;;6.37;64.48;99225.25;5014971;28;20033;-71
2021/03/25 07:24:51;;;;;;;454.52;198.38;;;;;;;6.57;64.63;99221.16;5013844;28;20033;-70
2021/03/25 07:27:31;;;;;;;462.17;212.17;;;;;;;6.66;63.55;99228.84;5017134;28;20025;-70
2021/03/25 07:30:07;;;;;;;464.40;210.30;;;;;;;6.89;63.08;99227.28;5014277;28;20287;-70
2021/03/25 07:32:51;;;;;;;458.83;214.03;;;;;;;7.04;62.65;99234.16;5011085;28;20268;-71
2021/03/25 07:35:35;;;;;;;460.43;216.97;;;;;;;7.29;62.00;99227.47;5015588;28;20272;-71
2021/03/25 07:38:16;;;;;;;459.67;221.33;;;;;;;7.39;60.84;99226.63;5012348;28;20315;-71
2021/03/25 07:40:43;;;;;;;460.30;226.03;;;;;;;7.52;61.02;99230.06;5014752;28;20264;-71
2021/03/25 07:43:24;;;;;;;461.90;231.53;;;;;;;7.74;59.37;99232.69;5006981;28;701855;-71
2021/03/25 07:46:05;;;;;;;466.43;231.97;;;;;;;7.97;58.32;99235.28;5015778;28;20289;-71
2021/03/25 07:48:30;;;;;;;463.23;236.97;;;;;;;8.05;58.48;99225.06;5016691;28;20537;-71
2021/03/25 07:51:12;;;;;;;465.53;244.73;;;;;;;8.19;58.28;99236.13;5014427;28;20493;-70
2021/03/25 07:53:39;;;;;;;466.03;246.93;;;;;;;8.12;57.46;99231.88;5013770;28;20038;-70
2021/03/25 07:56:13;;;;;;;473.63;260.77;;;;;;;8.43;56.79;99232.75;5012876;28;20256;-72
2021/03/25 07:58:42;;;;;;;468.33;254.57;;;;;;;8.52;56.37;99235.31;5013224;28;20265;-70
2021/03/25 08:01:10;;;;;;;473.10;265.07;;;;;;;8.59;56.77;99234.44;5026368;28;20320;-70
2021/03/25 08:03:51;;;;;;;470.63;265.23;;;;;;;8.79;55.88;99231.84;5016591;28;20281;-71
2021/03/25 08:06:45;;;;;;;474.97;274.40;;;;;;;8.95;55.76;99233.53;5013850;28;20375;-70
2021/03/25 08:09:14;;;;;;;477.77;283.20;;;;;;;9.11;55.02;99235.16;5005925;28;20350;-70
2021/03/25 08:11:50;;;;;;;472.90;281.30;;;;;;;9.27;54.61;99230.84;5015288;28;20694;-71
2021/03/25 08:14:31;;;;;;;475.93;290.87;;;;;;;9.32;54.09;99231.69;5014000;28;20283;-70
2021/03/25 08:17:12;;;;;;;476.70;294.80;;;;;;;9.33;53.61;99218.03;5015085;28;20307;-70
2021/03/25 08:20:05;;;;;;;474.87;291.70;;;;;;;9.45;53.44;99231.63;5012521;28;20261;-71
2021/03/25 08:22:59;;;;;;;476.53;301.73;;;;;;;9.64;53.39;99224.66;5016375;28;20344;-71
2021/03/25 08:26:01;;;;;;;475.47;299.53;;;;;;;9.50;52.81;99229.03;5013837;28;20355;-71
2021/03/25 08:28:54;;;;;;;482.63;314.03;;;;;;;9.16;54.13;99224.03;5004755;28;20344;-70
2021/03/25 08:31:19;;;;;;;478.73;309.57;;;;;;;9.39;53.46;99216.28;5016872;28;20292;-72
2021/03/25 08:34:06;;;;;;;484.07;314.87;;;;;;;9.75;53.32;99222.91;5013027;28;20650;-71
2021/03/25 08:36:49;;;;;;;478.90;310.00;;;;;;;9.68;52.72;99215.25;5014781;28;20026;-70
2021/03/25 08:39:29;;;;;;;484.10;318.43;;;;;;;9.75;51.88;99212.69;5014031;28;20388;-72
2021/03/25 08:42:11;;;;;;;485.70;327.23;;;;;;;10.04;52.15;99215.03;5015959;28;20669;-72
2021/03/25 08:44:57;;;;;;;479.27;308.10;;;;;;;10.12;51.36;99210.69;5016735;28;20734;-74
2021/03/25 08:47:49;;;;;;;486.10;321.17;;;;;;;10.25;51.18;99211.47;5011356;28;20368;-71
2021/03/25 08:50:43;;;;;;;485.27;332.27;;;;;;;10.53;51.11;99210.34;4993981;28;20426;-71
2021/03/25 08:53:33;;;;;;;487.90;333.90;;;;;;;10.51;50.79;99212.09;5015431;28;20360;-71
2021/03/25 08:56:04;;;;;;;489.37;343.83;;;;;;;10.53;50.50;99200.97;5012084;28;20350;-71
2021/03/25 08:58:36;;;;;;;484.37;344.33;;;;;;;10.56;50.61;99209.50;5011539;28;20671;-71
2021/03/25 09:01:06;;;;;;;489.03;345.70;;;;;;;10.57;51.95;99201.78;5012556;28;20533;-71
2021/03/25 09:03:40;;;;;;;491.23;354.27;;;;;;;10.78;51.29;99205.81;5015162;28;20277;-71
2021/03/25 09:06:26;;;;;;;489.53;351.13;;;;;;;10.89;50.49;99204.00;5010414;28;20261;-71
2021/03/25 09:08:59;;;;;;;491.63;359.80;;;;;;;10.86;50.00;99191.22;5013631;28;20308;-71
2021/03/25 09:11:24;;;;;;;490.33;365.50;;;;;;;10.94;50.23;99200.53;5013012;28;20623;-71
2021/03/25 09:13:59;;;;;;;491.53;363.70;;;;;;;11.22;49.90;99189.94;5013501;28;20273;-71
2021/03/25 09:16:29;;;;;;;492.17;373.15;;;;;;;11.27;49.55;99190.72;5012717;28;20034;-71
2021/03/25 09:18:56;;;;;;;489.57;368.10;;;;;;;11.30;49.76;99188.97;5015453;28;20096;-71
2021/03/25 09:21:25;;;;;;;491.87;375.30;;;;;;;11.42;48.98;99190.50;5010188;28;20302;-71
2021/03/25 09:23:50;;;;;;;495.60;389.20;;;;;;;11.41;49.29;99181.94;5011677;28;20297;-71
2021/03/25 09:26:15;;;;;;;494.20;385.77;;;;;;;11.46;48.97;99189.59;5016051;28;20300;-71
2021/03/25 09:28:58;;;;;;;497.17;391.70;;;;;;;11.67;48.74;99180.78;5010657;28;20023;-71
2021/03/25 09:31:24;;;;;;;494.03;388.40;;;;;;;11.68;49.19;99174.75;5045729;28;20088;-71
2021/03/25 09:33:55;;;;;;;501.50;401.37;;;;;;;11.77;48.89;99174.63;5008880;28;20623;-71
2021/03/25 09:36:21;;;;;;;496.13;399.30;;;;;;;11.67;48.41;99171.31;5015486;28;20630;-71
2021/03/25 09:39:11;;;;;;;503.10;403.77;;;;;;;11.60;49.42;99172.28;5014307;28;20334;-73
2021/03/25 09:41:43;;;;;;;498.53;407.70;;;;;;;11.92;48.34;99176.13;5013528;28;20136;-73
2021/03/25 09:44:09;;;;;;;497.60;405.30;;;;;;;12.12;48.49;99174.09;5010731;28;20291;-74
2021/03/25 09:46:51;;;;;;;501.07;424.37;;;;;;;12.21;47.65;99174.78;5014471;28;20273;-73
2021/03/25 09:49:20;;;;;;;503.60;421.33;;;;;;;12.31;47.64;99171.19;5010424;28;20026;-74
2021/03/25 09:52:11;;;;;;;504.47;422.93;;;;;;;12.42;46.79;99167.56;5014939;28;20585;-74
2021/03/25 09:55:08;;;;;;;505.77;429.27;;;;;;;12.05;47.82;99170.75;4990887;28;20287;-73
2021/03/25 09:57:36;;;;;;;495.57;426.57;;;;;;;12.34;46.96;99172.88;5011484;28;20681;-73
2021/03/25 10:00:17;;;;;;;499.77;429.73;;;;;;;12.41;46.99;99161.59;5014492;28;20367;-73
2021/03/25 10:02:43;;;;;;;504.00;444.73;;;;;;;12.56;46.04;99163.88;5014371;28;20265;-72
2021/03/25 10:08:11;;;;;;;509.93;453.63;;;;;;;12.75;46.61;99154.09;5011444;28;20276;-73
2021/03/25 10:10:46;;;;;;;508.90;453.27;;;;;;;12.83;46.42;99149.63;5010427;28;20742;-76
2021/03/25 10:13:15;;;;;;;511.30;454.95;;;;;;;12.82;46.06;99145.34;5012748;28;20293;-73
2021/03/25 10:15:54;;;;;;;517.73;461.80;;;;;;;13.07;45.02;99151.72;5009400;28;20144;-74
2021/03/25 10:18:25;;;;;;;521.50;464.53;;;;;;;13.16;45.80;99148.13;5014682;28;20260;-74
2021/03/25 10:21:18;;;;;;;537.53;480.37;;;;;;;13.53;45.39;99150.78;5008824;28;20308;-74
2021/03/25 10:23:49;;;;;;;538.30;481.33;;;;;;;13.40;45.33;99145.03;5007867;28;20645;-73
2021/03/25 10:26:25;;;;;;;556.77;499.27;;;;;;;13.56;45.28;99148.97;5007815;28;20277;-72
2021/03/25 10:29:12;;;;;;;545.67;488.37;;;;;;;13.55;44.63;99141.25;5010442;28;20558;-73
2021/03/25 10:31:38;;;;;;;540.90;483.60;;;;;;;13.49;44.86;99137.13;5008476;28;20292;-72
2021/03/25 10:34:15;;;;;;;553.23;495.60;;;;;;;13.53;44.51;99133.59;5007792;28;20307;-73
2021/03/25 10:36:47;;;;;;;558.70;501.30;;;;;;;13.58;44.58;99126.56;5016325;28;20022;-72
2021/03/25 10:39:26;;;;;;;547.07;489.90;;;;;;;13.43;45.06;99126.09;5011667;28;20626;-72
2021/03/25 10:41:53;;;;;;;555.27;498.10;;;;;;;13.45;44.39;99119.19;5017883;28;20257;-74
2021/03/25 10:44:32;;;;;;;557.00;499.87;;;;;;;13.46;45.06;99121.72;5015227;28;20351;-74
2021/03/25 10:47:05;;;;;;;557.40;500.73;;;;;;;13.55;44.61;99113.78;5017098;28;20276;-74
2021/03/25 10:49:41;;;;;;;558.77;501.33;;;;;;;13.53;44.33;99112.13;5016796;28;20276;-74
2021/03/25 10:52:26;;;;;;;561.77;504.73;;;;;;;13.60;44.71;99104.22;5013478;28;20307;-74
2021/03/25 10:54:56;;;;;;;557.05;500.27;;;;;;;13.62;44.42;99105.00;5015695;28;20280;-74
2021/03/25 10:57:27;;;;;;;561.60;503.90;;;;;;;13.65;44.60;99102.38;5011763;28;20390;-74
2021/03/25 11:00:03;;;;;;;558.83;501.77;;;;;;;13.62;44.60;99096.47;5017293;28;20296;-74
2021/03/25 11:02:37;;;;;;;549.17;492.43;;;;;;;13.71;43.88;99091.91;5017113;28;20269;-72
2021/03/25 11:05:23;;;;;;;565.20;508.07;;;;;;;13.80;43.46;99087.41;5017286;28;20273;-72
2021/03/25 11:07:53;;;;;;;;;;;;;;;13.93;44.18;99091.38;5013653;28;20284;-72
2021/03/25 11:10:28;;;;;;;553.37;496.00;;;;;;;13.83;44.03;99089.94;5015906;28;20132;-73
2021/03/25 11:12:55;;;;;;;561.00;504.05;;;;;;;13.79;44.11;99078.00;5014816;28;20720;-73
2021/03/25 11:15:29;;;;;;;558.83;501.70;;;;;;;13.98;43.97;99074.06;5013412;28;20034;-67
2021/03/25 11:17:55;;;;;;;560.23;503.50;;;;;;;14.13;43.51;99079.66;5015151;28;20481;-69
2021/03/25 11:20:24;;;;;;;563.37;506.37;;;;;;;13.96;43.32;99075.88;5012871;28;20280;-69
2021/03/25 11:22:51;;;;;;;567.27;510.50;;;;;;;14.08;43.17;99071.22;5029284;28;20026;-69
2021/03/25 11:25:29;;;;;;;566.70;509.90;;;;;;;14.17;43.28;99063.22;5013452;28;20292;-69
2021/03/25 11:28:03;;;;;;;576.77;519.33;;;;;;;14.24;42.49;99069.09;5018337;28;20272;-69
2021/03/25 11:30:39;;;;;;;581.20;523.90;;;;;;;14.39;42.10;99060.94;5009389;28;20391;-69
2021/03/25 11:33:20;;;;;;;583.70;526.40;;;;;;;14.26;42.80;99061.31;5016288;28;20658;-69
2021/03/25 11:35:46;;;;;;;579.77;522.53;;;;;;;14.15;42.90;99056.44;5015793;28;20268;-70
2021/03/25 11:38:29;;;;;;;578.60;521.33;;;;;;;14.36;42.75;99055.88;5016082;28;20350;-69
2021/03/25 11:41:08;;;;;;;582.90;525.30;;;;;;;14.56;42.50;99048.44;5013078;28;20645;-69
2021/03/25 11:43:42;;;;;;;594.83;537.47;;;;;;;14.59;42.34;99050.09;5010715;28;20324;-69